sensor_id;sensor_type;location;lat;lon;timestamp;pressure;altitude;pressure_sealevel;temperature;humidity
30897;BME280;64229;52.246;21.054;2023-05-03T19:47:20;101535.78;;;12.64;45.32
30897;BME280;64229;52.246;21.054;2023-05-03T19:49:46;101545.94;;;12.62;45.39
30897;BME280;64229;52.246;21.054;2023-05-03T19:52:11;101541.91;;;12.59;45.11
30897;BME280;64229;52.246;21.054;2023-05-03T19:54:37;101547.50;;;12.58;44.80
30897;BME280;64229;52.246;21.054;2023-05-03T19:57:05;101545.06;;;12.56;44.24
30897;BME280;64229;52.246;21.054;2023-05-03T19:59:31;101527.16;;;12.40;43.80
30897;BME280;64229;52.246;21.054;2023-05-03T20:01:57;101546.88;;;12.51;43.44
30897;BME280;64229;52.246;21.054;2023-05-03T20:04:22;101543.63;;;12.49;43.31
30897;BME280;64229;52.246;21.054;2023-05-03T20:06:48;101545.41;;;12.43;43.13
30897;BME280;64229;52.246;21.054;2023-05-03T20:09:13;101543.31;;;12.45;42.92
30897;BME280;64229;52.246;21.054;2023-05-03T20:11:39;101549.69;;;12.44;43.59
30897;BME280;64229;52.246;21.054;2023-05-03T20:14:04;101544.84;;;12.41;43.85
30897;BME280;64229;52.246;21.054;2023-05-03T20:16:30;101545.91;;;12.40;43.78
30897;BME280;64229;52.246;21.054;2023-05-03T20:18:58;101544.53;;;12.37;44.75
30897;BME280;64229;52.246;21.054;2023-05-03T20:21:23;101548.28;;;12.36;45.27
30897;BME280;64229;52.246;21.054;2023-05-03T20:23:49;101550.41;;;12.34;46.30
30897;BME280;64229;52.246;21.054;2023-05-03T20:26:15;101541.78;;;12.32;46.71
30897;BME280;64229;52.246;21.054;2023-05-03T20:28:42;101549.25;;;12.30;47.62
30897;BME280;64229;52.246;21.054;2023-05-03T20:31:08;101549.50;;;12.29;48.14
30897;BME280;64229;52.246;21.054;2023-05-03T20:33:34;101544.06;;;12.24;48.23
30897;BME280;64229;52.246;21.054;2023-05-03T20:36:00;101547.22;;;12.21;48.81
30897;BME280;64229;52.246;21.054;2023-05-03T20:38:25;101558.44;;;12.18;48.87
30897;BME280;64229;52.246;21.054;2023-05-03T20:40:51;101555.44;;;12.14;48.50
30897;BME280;64229;52.246;21.054;2023-05-03T20:43:16;101553.22;;;12.11;48.57
30897;BME280;64229;52.246;21.054;2023-05-03T20:45:42;101555.53;;;12.02;48.58
30897;BME280;64229;52.246;21.054;2023-05-03T20:48:08;101560.13;;;12.07;48.35
30897;BME280;64229;52.246;21.054;2023-05-03T20:50:33;101561.19;;;12.06;48.25
30897;BME280;64229;52.246;21.054;2023-05-03T20:52:58;101559.47;;;12.00;48.11
30897;BME280;64229;52.246;21.054;2023-05-03T20:55:24;101557.28;;;11.97;48.09
30897;BME280;64229;52.246;21.054;2023-05-03T20:57:49;101551.28;;;11.90;48.22
30897;BME280;64229;52.246;21.054;2023-05-03T21:00:15;101545.28;;;11.82;48.51
30897;BME280;64229;52.246;21.054;2023-05-03T21:02:41;101561.97;;;11.90;48.88
30897;BME280;64229;52.246;21.054;2023-05-03T21:05:08;101557.94;;;11.87;49.90
30897;BME280;64229;52.246;21.054;2023-05-03T21:07:34;101555.50;;;11.85;50.11
30897;BME280;64229;52.246;21.054;2023-05-03T21:09:59;101552.50;;;11.82;50.65
30897;BME280;64229;52.246;21.054;2023-05-03T21:12:24;101557.28;;;11.80;50.71
30897;BME280;64229;52.246;21.054;2023-05-03T21:14:50;101549.69;;;11.77;51.09
30897;BME280;64229;52.246;21.054;2023-05-03T21:17:15;101538.81;;;11.67;51.26
30897;BME280;64229;52.246;21.054;2023-05-03T21:19:41;101550.69;;;11.71;51.36
30897;BME280;64229;52.246;21.054;2023-05-03T21:22:06;101543.94;;;11.68;52.21
30897;BME280;64229;52.246;21.054;2023-05-03T21:24:33;101553.00;;;11.67;52.63
30897;BME280;64229;52.246;21.054;2023-05-03T21:26:58;101550.81;;;11.64;52.77
30897;BME280;64229;52.246;21.054;2023-05-03T21:29:24;101549.44;;;11.62;52.94
30897;BME280;64229;52.246;21.054;2023-05-03T21:31:49;101537.38;;;11.59;53.04
30897;BME280;64229;52.246;21.054;2023-05-03T21:34:14;101545.63;;;11.57;53.22
30897;BME280;64229;52.246;21.054;2023-05-03T21:36:40;101546.91;;;11.55;53.55
30897;BME280;64229;52.246;21.054;2023-05-03T21:39:05;101546.59;;;11.51;53.90
30897;BME280;64229;52.246;21.054;2023-05-03T21:41:30;101537.75;;;11.51;53.56
30897;BME280;64229;52.246;21.054;2023-05-03T21:43:56;101544.41;;;11.48;53.71
30897;BME280;64229;52.246;21.054;2023-05-03T21:46:21;101536.28;;;11.43;53.06
30897;BME280;64229;52.246;21.054;2023-05-03T21:48:46;101542.69;;;11.42;52.97
30897;BME280;64229;52.246;21.054;2023-05-03T21:51:19;101537.00;;;11.39;53.42
30897;BME280;64229;52.246;21.054;2023-05-03T21:53:46;101535.38;;;11.38;53.17
30897;BME280;64229;52.246;21.054;2023-05-03T21:56:12;101535.53;;;11.31;53.20
30897;BME280;64229;52.246;21.054;2023-05-03T21:58:37;101539.00;;;11.32;53.52
30897;BME280;64229;52.246;21.054;2023-05-03T22:01:04;101542.16;;;11.28;53.97
30897;BME280;64229;52.246;21.054;2023-05-03T22:03:29;101538.34;;;11.24;54.07
30897;BME280;64229;52.246;21.054;2023-05-03T22:05:54;101540.19;;;11.24;54.49
30897;BME280;64229;52.246;21.054;2023-05-03T22:08:20;101544.41;;;11.20;54.63
30897;BME280;64229;52.246;21.054;2023-05-03T22:10:45;101541.97;;;11.18;55.21
30897;BME280;64229;52.246;21.054;2023-05-03T22:13:11;101544.88;;;11.17;54.84
30897;BME280;64229;52.246;21.054;2023-05-03T22:15:37;101545.34;;;11.14;55.16
30897;BME280;64229;52.246;21.054;2023-05-03T22:18:02;101548.50;;;11.11;54.76
30897;BME280;64229;52.246;21.054;2023-05-03T22:20:28;101542.81;;;11.07;54.38
30897;BME280;64229;52.246;21.054;2023-05-03T22:22:53;101541.34;;;10.99;54.40
30897;BME280;64229;52.246;21.054;2023-05-03T22:25:26;101522.91;;;10.86;54.08
30897;BME280;64229;52.246;21.054;2023-05-03T22:27:52;101546.09;;;10.97;54.16
30897;BME280;64229;52.246;21.054;2023-05-03T22:30:18;101550.88;;;10.95;54.23
30897;BME280;64229;52.246;21.054;2023-05-03T22:32:44;101554.81;;;10.93;53.97
30897;BME280;64229;52.246;21.054;2023-05-03T22:35:09;101551.56;;;10.91;53.85
30897;BME280;64229;52.246;21.054;2023-05-03T22:37:35;101554.25;;;10.91;53.64
30897;BME280;64229;52.246;21.054;2023-05-03T22:40:01;101549.84;;;10.85;53.43
30897;BME280;64229;52.246;21.054;2023-05-03T22:42:26;101551.69;;;10.84;53.71
30897;BME280;64229;52.246;21.054;2023-05-03T22:44:52;101550.53;;;10.80;54.36
30897;BME280;64229;52.246;21.054;2023-05-03T22:47:18;101524.59;;;10.64;55.00
30897;BME280;64229;52.246;21.054;2023-05-03T22:49:44;101551.25;;;10.76;55.59
30897;BME280;64229;52.246;21.054;2023-05-03T22:52:09;101549.53;;;10.69;55.68
30897;BME280;64229;52.246;21.054;2023-05-03T22:54:34;101543.03;;;10.65;56.32
30897;BME280;64229;52.246;21.054;2023-05-03T22:57:00;101543.84;;;10.66;56.17
30897;BME280;64229;52.246;21.054;2023-05-03T22:59:25;101551.28;;;10.64;55.89
30897;BME280;64229;52.246;21.054;2023-05-03T23:01:51;101543.72;;;10.61;55.94
30897;BME280;64229;52.246;21.054;2023-05-03T23:04:16;101553.81;;;10.59;55.75
30897;BME280;64229;52.246;21.054;2023-05-03T23:06:41;101545.72;;;10.54;55.61
30897;BME280;64229;52.246;21.054;2023-05-03T23:09:07;101545.34;;;10.50;55.55
30897;BME280;64229;52.246;21.054;2023-05-03T23:11:34;101547.44;;;10.48;55.95
30897;BME280;64229;52.246;21.054;2023-05-03T23:13:59;101554.66;;;10.48;56.49
30897;BME280;64229;52.246;21.054;2023-05-03T23:16:24;101546.53;;;10.42;57.36
30897;BME280;64229;52.246;21.054;2023-05-03T23:18:50;101546.88;;;10.46;57.73
30897;BME280;64229;52.246;21.054;2023-05-03T23:21:15;101550.84;;;10.43;57.78
30897;BME280;64229;52.246;21.054;2023-05-03T23:23:41;101551.28;;;10.40;58.09
30897;BME280;64229;52.246;21.054;2023-05-03T23:26:06;101550.13;;;10.36;57.32
30897;BME280;64229;52.246;21.054;2023-05-03T23:28:32;101546.31;;;10.32;57.39
30897;BME280;64229;52.246;21.054;2023-05-03T23:30:57;101555.56;;;10.30;57.08
30897;BME280;64229;52.246;21.054;2023-05-03T23:33:22;101552.56;;;10.26;56.95
30897;BME280;64229;52.246;21.054;2023-05-03T23:35:48;101548.91;;;10.21;56.82
30897;BME280;64229;52.246;21.054;2023-05-03T23:38:13;101538.94;;;10.16;56.47
30897;BME280;64229;52.246;21.054;2023-05-03T23:40:38;101542.09;;;10.13;56.82
30897;BME280;64229;52.246;21.054;2023-05-03T23:43:04;101537.19;;;10.10;57.17
30897;BME280;64229;52.246;21.054;2023-05-03T23:45:29;101539.28;;;10.08;57.49
30897;BME280;64229;52.246;21.054;2023-05-03T23:47:55;101532.91;;;10.09;57.75
30897;BME280;64229;52.246;21.054;2023-05-03T23:50:20;101532.34;;;10.07;58.07
30897;BME280;64229;52.246;21.054;2023-05-03T23:52:45;101528.63;;;10.08;58.58
30897;BME280;64229;52.246;21.054;2023-05-03T23:55:11;101525.59;;;10.04;58.81
30897;BME280;64229;52.246;21.054;2023-05-03T23:57:36;101516.78;;;9.92;58.39
